createdAt,value
2023-03-01T00:00:10.017Z,101741.91
2023-03-01T00:02:58.696Z,101748.48
2023-03-01T00:05:27.798Z,101744.73
2023-03-01T00:07:56.568Z,101742.23
2023-03-01T00:10:25.412Z,101740.83
2023-03-01T00:12:54.417Z,101740.13
2023-03-01T00:15:23.047Z,101737.48
2023-03-01T00:17:51.725Z,101736.52
2023-03-01T00:20:20.347Z,101738.11
2023-03-01T00:22:48.995Z,101734.63
2023-03-01T00:25:17.827Z,101735.92
2023-03-01T00:27:48.262Z,101729.92
2023-03-01T00:30:17.867Z,101726.64
2023-03-01T00:32:46.577Z,101728.03
2023-03-01T00:35:15.453Z,101725.48
2023-03-01T00:37:44.755Z,101725.31
2023-03-01T00:40:14.248Z,101722.54
2023-03-01T00:42:42.994Z,101721.05
2023-03-01T00:45:11.870Z,101718.85
2023-03-01T00:47:40.622Z,101713.90
2023-03-01T00:50:10.415Z,101713.24
2023-03-01T00:52:39.428Z,101711.58
2023-03-01T00:55:09.117Z,101712.79
2023-03-01T00:57:38.369Z,101709.31
2023-03-01T01:00:08.384Z,101708.45
2023-03-01T01:02:37.605Z,101703.63
2023-03-01T01:05:06.936Z,101701.64
2023-03-01T01:07:35.902Z,101701.16
2023-03-01T01:10:05.337Z,101698.89
2023-03-01T01:12:34.971Z,101695.94
2023-03-01T01:15:03.845Z,101701.64
2023-03-01T01:17:32.651Z,101705.02
2023-03-01T01:20:01.341Z,101705.27
2023-03-01T01:22:32.510Z,101702.20
2023-03-01T01:25:01.382Z,101699.65
2023-03-01T01:27:31.369Z,101700.11
2023-03-01T01:29:59.941Z,101699.23
2023-03-01T01:32:28.596Z,101696.60
2023-03-01T01:34:57.234Z,101694.04
2023-03-01T01:37:32.354Z,101694.52
2023-03-01T01:40:09.275Z,101691.70
2023-03-01T01:42:37.770Z,101687.79
2023-03-01T01:45:25.854Z,101680.36
2023-03-01T01:47:56.986Z,101681.37
2023-03-01T01:50:27.086Z,101679.85
2023-03-01T01:52:56.187Z,101677.52
2023-03-01T01:55:28.773Z,101672.27
2023-03-01T01:58:03.430Z,101669.94
2023-03-01T02:00:32.035Z,101668.70
2023-03-01T02:03:10.305Z,101663.28
2023-03-01T02:05:55.882Z,101651.33
2023-03-01T02:08:28.575Z,101645.46
2023-03-01T02:10:58.488Z,101637.62
2023-03-01T02:13:27.978Z,101636.30
2023-03-01T02:15:57.453Z,101630.86
2023-03-01T02:18:26.816Z,101629.91
2023-03-01T02:21:19.016Z,101623.23
2023-03-01T02:23:48.356Z,101625.84
2023-03-01T02:26:24.498Z,101624.52
2023-03-01T02:28:53.425Z,101622.20
2023-03-01T02:31:41.485Z,101629.63
2023-03-01T02:34:17.101Z,101622.58
2023-03-01T02:36:50.096Z,101617.66
2023-03-01T02:39:25.364Z,101618.58
2023-03-01T02:41:57.182Z,101618.28
2023-03-01T02:44:26.218Z,101615.64
2023-03-01T02:46:58.043Z,101616.59
2023-03-01T02:49:32.157Z,101622.39
2023-03-01T02:52:23.008Z,101619.62
2023-03-01T02:55:09.188Z,101615.89
2023-03-01T02:57:41.687Z,101614.79
2023-03-01T03:00:32.369Z,101609.27
2023-03-01T03:03:01.085Z,101613.30
2023-03-01T03:05:32.560Z,101615.79
2023-03-01T03:08:03.691Z,101621.24
2023-03-01T03:10:36.381Z,101629.73
2023-03-01T03:13:08.615Z,101632.41
2023-03-01T03:15:37.899Z,101624.41
2023-03-01T03:18:09.736Z,101617.05
2023-03-01T03:20:41.750Z,101617.96
2023-03-01T03:23:10.427Z,101615.63
2023-03-01T03:25:39.289Z,101618.93
2023-03-01T03:28:12.089Z,101621.52
2023-03-01T03:30:42.543Z,101619.07
2023-03-01T03:33:13.832Z,101621.39
2023-03-01T03:35:48.137Z,101625.13
2023-03-01T03:38:20.494Z,101624.16
2023-03-01T03:40:51.953Z,101623.66
2023-03-01T03:43:23.522Z,101614.00
2023-03-01T03:45:53.284Z,101608.41
2023-03-01T03:48:22.683Z,101608.80
2023-03-01T03:50:55.975Z,101604.30
2023-03-01T03:53:27.303Z,101600.33
2023-03-01T03:55:56.019Z,101597.84
2023-03-01T03:58:26.632Z,101592.15
2023-03-01T04:00:57.623Z,101591.48
2023-03-01T04:03:27.838Z,101597.55
2023-03-01T04:05:59.529Z,101602.66
2023-03-01T04:08:29.030Z,101604.20
2023-03-01T04:11:01.972Z,101602.52
2023-03-01T04:13:30.941Z,101603.09
2023-03-01T04:15:59.775Z,101606.66
2023-03-01T04:18:28.353Z,101609.88
2023-03-01T04:20:57.094Z,101603.77
2023-03-01T04:23:26.123Z,101599.01
2023-03-01T04:25:57.225Z,101601.00
2023-03-01T04:28:31.521Z,101600.23
2023-03-01T04:31:03.042Z,101599.28
2023-03-01T04:33:32.172Z,101601.52
2023-03-01T04:36:00.890Z,101603.30
2023-03-01T04:38:29.543Z,101605.69
2023-03-01T04:40:58.165Z,101601.92
2023-03-01T04:43:26.974Z,101598.16
2023-03-01T04:45:55.550Z,101596.06
2023-03-01T04:48:24.212Z,101591.09
2023-03-01T04:50:53.020Z,101591.58
2023-03-01T04:53:21.639Z,101590.35
2023-03-01T04:55:50.233Z,101591.30
2023-03-01T04:58:18.872Z,101588.61
2023-03-01T05:00:47.534Z,101583.66
2023-03-01T05:03:19.460Z,101586.59
2023-03-01T05:05:50.798Z,101586.04
2023-03-01T05:08:20.334Z,101587.85
2023-03-01T05:10:54.069Z,101592.48
2023-03-01T05:13:23.158Z,101597.33
2023-03-01T05:16:00.565Z,101597.20
2023-03-01T05:18:31.790Z,101597.30
2023-03-01T05:21:07.519Z,101601.74
2023-03-01T05:23:37.579Z,101604.32
2023-03-01T05:26:16.120Z,101605.91
2023-03-01T05:28:51.344Z,101597.73
2023-03-01T05:31:20.556Z,101599.08
2023-03-01T05:33:49.151Z,101592.84
2023-03-01T05:36:19.759Z,101590.35
2023-03-01T05:38:48.424Z,101587.80
2023-03-01T05:41:18.271Z,101581.45
2023-03-01T05:43:47.050Z,101580.77
2023-03-01T05:46:16.597Z,101581.96
2023-03-01T05:48:45.291Z,101579.00
2023-03-01T05:51:14.373Z,101581.98
2023-03-01T05:53:43.049Z,101586.36
2023-03-01T05:56:12.203Z,101582.33
2023-03-01T05:58:40.953Z,101581.08
2023-03-01T06:01:14.705Z,101575.88
2023-03-01T06:03:44.015Z,101573.23
2023-03-01T06:06:12.624Z,101567.69
2023-03-01T06:08:41.168Z,101566.79
2023-03-01T06:11:10.141Z,101570.95
2023-03-01T06:13:38.711Z,101572.58
2023-03-01T06:16:08.883Z,101571.16
2023-03-01T06:18:38.911Z,101565.35
2023-03-01T06:21:09.580Z,101571.02
2023-03-01T06:23:38.089Z,101575.95
2023-03-01T06:26:08.727Z,101573.02
2023-03-01T06:28:37.489Z,101577.92
2023-03-01T06:31:10.154Z,101577.52
2023-03-01T06:33:38.899Z,101582.48
2023-03-01T06:36:08.618Z,101583.30
2023-03-01T06:38:37.587Z,101584.55
2023-03-01T06:41:06.173Z,101584.49
2023-03-01T06:43:34.802Z,101583.16
2023-03-01T06:46:08.171Z,101588.41
2023-03-01T06:48:37.318Z,101588.76
2023-03-01T06:51:05.992Z,101580.62
2023-03-01T06:53:34.557Z,101576.60
2023-03-01T06:56:02.970Z,101574.27
2023-03-01T06:58:31.546Z,101574.37
2023-03-01T07:00:59.935Z,101583.66
2023-03-01T07:03:28.529Z,101590.41
2023-03-01T07:05:56.970Z,101585.36
2023-03-01T07:08:25.522Z,101583.25
2023-03-01T07:10:58.341Z,101582.60
2023-03-01T07:13:26.919Z,101584.16
2023-03-01T07:15:55.473Z,101580.92
2023-03-01T07:18:24.134Z,101579.45
2023-03-01T07:20:52.666Z,101576.50
2023-03-01T07:23:21.320Z,101580.05
2023-03-01T07:25:54.709Z,101575.14
2023-03-01T07:28:26.543Z,101577.93
2023-03-01T07:30:55.502Z,101580.88
2023-03-01T07:33:24.165Z,101578.75
2023-03-01T07:36:00.246Z,101580.27
2023-03-01T07:38:30.346Z,101587.83
2023-03-01T07:41:03.618Z,101580.81
2023-03-01T07:43:32.745Z,101588.17
2023-03-01T07:46:03.209Z,101592.16
2023-03-01T07:48:33.125Z,101589.91
2023-03-01T07:51:03.177Z,101589.87
2023-03-01T07:53:35.399Z,101590.00
2023-03-01T07:56:12.038Z,101589.06
2023-03-01T07:58:43.675Z,101592.91
2023-03-01T08:01:15.429Z,101600.50
2023-03-01T08:03:45.064Z,101590.00
2023-03-01T08:06:16.130Z,101588.00
2023-03-01T08:08:45.739Z,101576.92
2023-03-01T08:11:16.199Z,101573.70
2023-03-01T08:13:45.242Z,101564.90
2023-03-01T08:16:16.165Z,101560.60
2023-03-01T08:18:44.895Z,101560.39
2023-03-01T08:21:19.023Z,101551.77
2023-03-01T08:23:47.503Z,101551.55
2023-03-01T08:26:21.782Z,101547.04
2023-03-01T08:28:51.600Z,101540.59
2023-03-01T08:31:38.197Z,101532.62
2023-03-01T08:34:10.990Z,101526.02
2023-03-01T08:36:42.262Z,101524.36
2023-03-01T08:39:14.122Z,101526.52
2023-03-01T08:41:43.011Z,101524.91
2023-03-01T08:44:13.790Z,101526.52
2023-03-01T08:46:43.104Z,101524.68
2023-03-01T08:49:19.401Z,101521.04
2023-03-01T08:51:49.030Z,101512.39
2023-03-01T08:54:21.161Z,101513.81
2023-03-01T08:56:50.504Z,101500.71
2023-03-01T08:59:20.172Z,101496.21
2023-03-01T09:01:48.840Z,101491.17
2023-03-01T09:04:18.095Z,101480.35
2023-03-01T09:06:46.686Z,101478.69
2023-03-01T09:09:18.366Z,101478.92
2023-03-01T09:11:47.951Z,101481.36
2023-03-01T09:14:17.096Z,101481.48
2023-03-01T09:16:46.465Z,101480.40
2023-03-01T09:19:15.303Z,101484.42
2023-03-01T09:21:53.416Z,101487.27
2023-03-01T09:24:24.066Z,101481.73
2023-03-01T09:26:56.622Z,101480.63
2023-03-01T09:29:25.418Z,101478.85
2023-03-01T09:31:56.607Z,101472.85
2023-03-01T09:34:59.048Z,101470.52
2023-03-01T09:37:29.111Z,101466.89
2023-03-01T09:39:57.480Z,101464.33
2023-03-01T09:42:26.210Z,101462.27
2023-03-01T09:45:07.951Z,101459.20
2023-03-01T09:47:37.690Z,101458.91
2023-03-01T09:50:18.297Z,101464.30
2023-03-01T09:53:01.521Z,101467.89
2023-03-01T09:55:44.495Z,101466.73
2023-03-01T09:58:19.154Z,101466.97
2023-03-01T10:00:50.487Z,101470.76
2023-03-01T10:03:43.923Z,101466.42
2023-03-01T10:06:33.982Z,101462.83
2023-03-01T10:09:15.271Z,101460.72
2023-03-01T10:11:48.496Z,101464.58
2023-03-01T10:14:38.062Z,101460.30
2023-03-01T10:17:18.913Z,101458.36
2023-03-01T10:19:48.936Z,101458.36
2023-03-01T10:22:22.576Z,101460.25
2023-03-01T10:24:54.232Z,101466.48
2023-03-01T10:27:30.898Z,101464.20
2023-03-01T10:30:45.351Z,101460.66
2023-03-01T10:33:41.003Z,101459.61
2023-03-01T10:36:10.076Z,101459.91
2023-03-01T10:38:58.065Z,101448.19
2023-03-01T10:41:28.894Z,101450.23
2023-03-01T10:44:00.865Z,101450.55
2023-03-01T10:46:33.234Z,101446.77
2023-03-01T10:49:22.413Z,101444.07
2023-03-01T10:51:55.030Z,101442.32
2023-03-01T10:54:30.100Z,101439.95
2023-03-01T10:57:06.697Z,101436.29
2023-03-01T10:59:39.153Z,101431.96
2023-03-01T11:02:24.358Z,101428.52
2023-03-01T11:05:29.693Z,101429.44
2023-03-01T11:08:00.242Z,101429.46
2023-03-01T11:10:32.207Z,101420.86
2023-03-01T11:13:18.817Z,101420.40
2023-03-01T11:16:02.672Z,101418.25
2023-03-01T11:18:46.158Z,101410.63
2023-03-01T11:21:17.775Z,101410.60
2023-03-01T11:23:48.325Z,101410.53
2023-03-01T11:26:18.925Z,101406.59
2023-03-01T11:28:52.787Z,101408.36
2023-03-01T11:31:24.370Z,101408.91
2023-03-01T11:34:06.543Z,101409.79
2023-03-01T11:36:55.048Z,101405.13
2023-03-01T11:39:35.413Z,101404.64
2023-03-01T11:42:59.640Z,101404.20
2023-03-01T11:45:36.066Z,101399.06
2023-03-01T11:48:49.973Z,101392.85
2023-03-01T11:51:50.272Z,101389.65
2023-03-01T11:54:28.950Z,101389.41
2023-03-01T11:56:57.773Z,101386.06
2023-03-01T12:00:01.670Z,101385.33
2023-03-01T12:02:44.976Z,101382.45
2023-03-01T12:05:35.076Z,101376.09
2023-03-01T12:08:27.159Z,101371.29
2023-03-01T12:11:27.335Z,101366.41
2023-03-01T12:14:14.438Z,101357.64
2023-03-01T12:17:03.672Z,101354.73
2023-03-01T12:20:12.209Z,101354.84
2023-03-01T12:23:20.611Z,101352.43
2023-03-01T12:26:45.221Z,101346.93
2023-03-01T12:29:31.021Z,101338.68
2023-03-01T12:32:17.663Z,101336.68
2023-03-01T12:34:56.850Z,101335.45
2023-03-01T12:37:47.707Z,101332.65
2023-03-01T12:40:19.073Z,101332.55
2023-03-01T12:42:54.119Z,101332.27
2023-03-01T12:45:41.528Z,101337.06
2023-03-01T12:48:22.698Z,101333.12
2023-03-01T12:50:56.878Z,101333.45
2023-03-01T12:53:29.678Z,101333.65
2023-03-01T12:56:07.125Z,101329.89
2023-03-01T12:58:58.957Z,101324.27
2023-03-01T13:02:16.054Z,101320.80
2023-03-01T13:05:21.088Z,101317.81
2023-03-01T13:07:55.029Z,101316.30
2023-03-01T13:10:45.036Z,101310.67
2023-03-01T13:13:25.305Z,101307.52
2023-03-01T13:15:54.851Z,101308.51
2023-03-01T13:18:29.388Z,101303.85
2023-03-01T13:21:01.247Z,101297.62
2023-03-01T13:23:35.540Z,101293.80
2023-03-01T13:26:12.541Z,101287.20
2023-03-01T13:28:50.957Z,101285.12
2023-03-01T13:31:25.228Z,101287.39
2023-03-01T13:33:54.472Z,101282.38
2023-03-01T13:36:50.143Z,101278.80
2023-03-01T13:39:29.368Z,101278.46
2023-03-01T13:42:01.535Z,101277.98
2023-03-01T13:44:40.069Z,101280.77
2023-03-01T13:47:08.613Z,101280.75
2023-03-01T13:49:48.831Z,101285.08
2023-03-01T13:52:44.694Z,101289.42
2023-03-01T13:55:20.856Z,101288.08
2023-03-01T13:57:55.026Z,101289.10
2023-03-01T14:00:27.109Z,101281.95
2023-03-01T14:03:17.027Z,101277.90
2023-03-01T14:06:15.859Z,101276.06
2023-03-01T14:08:47.178Z,101275.94
2023-03-01T14:12:00.712Z,101269.94
2023-03-01T14:15:06.867Z,101266.92
2023-03-01T14:17:53.177Z,101265.91
2023-03-01T14:20:23.331Z,101267.15
2023-03-01T14:22:57.290Z,101265.23
2023-03-01T14:25:40.272Z,101266.59
2023-03-01T14:28:40.287Z,101263.59
2023-03-01T14:31:53.074Z,101268.16
2023-03-01T14:34:25.131Z,101269.69
2023-03-01T14:36:54.320Z,101270.45
2023-03-01T14:39:27.643Z,101262.98
2023-03-01T14:41:58.871Z,101256.70
2023-03-01T14:44:31.238Z,101257.26
2023-03-01T14:46:59.893Z,101259.61
2023-03-01T14:49:33.885Z,101261.07
2023-03-01T14:52:06.569Z,101257.96
2023-03-01T14:54:43.454Z,101253.56
2023-03-01T14:57:23.043Z,101252.49
2023-03-01T14:59:55.941Z,101249.11
2023-03-01T15:02:28.751Z,101242.32
2023-03-01T15:05:09.216Z,101237.33
2023-03-01T15:07:43.102Z,101230.19
2023-03-01T15:10:34.143Z,101232.79
2023-03-01T15:13:23.439Z,101234.59
2023-03-01T15:15:54.503Z,101233.30
2023-03-01T15:18:29.060Z,101233.21
2023-03-01T15:21:07.625Z,101234.98
2023-03-01T15:23:38.327Z,101237.42
2023-03-01T15:26:07.091Z,101238.38
2023-03-01T15:28:41.341Z,101240.40
2023-03-01T15:31:24.549Z,101245.09
2023-03-01T15:33:53.634Z,101247.44
2023-03-01T15:36:45.750Z,101248.52
2023-03-01T15:39:46.592Z,101247.20
2023-03-01T15:42:35.480Z,101247.61
2023-03-01T15:45:24.754Z,101245.08
2023-03-01T15:47:59.028Z,101240.58
2023-03-01T15:50:34.297Z,101243.04
2023-03-01T15:53:12.489Z,101241.44
2023-03-01T15:55:41.672Z,101240.92
2023-03-01T15:58:21.928Z,101236.19
2023-03-01T16:01:04.354Z,101233.56
2023-03-01T16:03:33.523Z,101234.77
2023-03-01T16:06:02.930Z,101230.89
2023-03-01T16:08:31.624Z,101232.43
2023-03-01T16:11:00.235Z,101236.14
2023-03-01T16:13:29.738Z,101239.14
2023-03-01T16:16:00.434Z,101237.17
2023-03-01T16:18:29.725Z,101238.26
2023-03-01T16:20:58.993Z,101234.77
2023-03-01T16:23:28.096Z,101229.48
2023-03-01T16:26:01.572Z,101234.50
2023-03-01T16:28:30.542Z,101233.69
2023-03-01T16:31:00.093Z,101235.19
2023-03-01T16:33:33.680Z,101234.36
2023-03-01T16:36:12.804Z,101230.65
2023-03-01T16:38:41.595Z,101229.34
2023-03-01T16:41:16.737Z,101225.45
2023-03-01T16:43:48.053Z,101227.54
2023-03-01T16:46:21.415Z,101224.27
2023-03-01T16:48:53.280Z,101228.92
2023-03-01T16:51:24.045Z,101229.06
2023-03-01T16:53:53.071Z,101234.02
2023-03-01T16:56:23.029Z,101237.90
2023-03-01T16:58:52.104Z,101232.71
2023-03-01T17:01:25.823Z,101225.64
2023-03-01T17:03:55.196Z,101226.61
2023-03-01T17:06:26.598Z,101228.42
2023-03-01T17:08:55.427Z,101230.90
2023-03-01T17:11:25.765Z,101230.81
2023-03-01T17:13:54.977Z,101233.16
2023-03-01T17:16:24.051Z,101231.91
2023-03-01T17:18:54.092Z,101229.27
2023-03-01T17:21:23.095Z,101232.13
2023-03-01T17:23:58.045Z,101232.10
2023-03-01T17:26:30.626Z,101235.64
2023-03-01T17:28:59.525Z,101241.13
2023-03-01T17:31:28.768Z,101240.33
2023-03-01T17:34:01.392Z,101243.27
2023-03-01T17:36:31.695Z,101246.28
2023-03-01T17:39:02.214Z,101245.41
2023-03-01T17:41:31.926Z,101243.30
2023-03-01T17:44:01.111Z,101240.88
2023-03-01T17:46:30.673Z,101239.00
2023-03-01T17:49:01.518Z,101239.91
2023-03-01T17:51:33.833Z,101244.30
2023-03-01T17:54:03.217Z,101244.60
2023-03-01T17:56:34.415Z,101239.52
2023-03-01T17:59:04.422Z,101237.48
2023-03-01T18:01:36.558Z,101237.72
2023-03-01T18:04:05.734Z,101240.61
2023-03-01T18:06:37.491Z,101241.64
2023-03-01T18:09:06.714Z,101241.50
2023-03-01T18:11:37.466Z,101239.05
2023-03-01T18:14:08.096Z,101244.02
2023-03-01T18:16:37.369Z,101243.16
2023-03-01T18:19:08.965Z,101243.40
2023-03-01T18:21:39.684Z,101242.85
2023-03-01T18:24:10.301Z,101239.45
2023-03-01T18:26:40.462Z,101239.22
2023-03-01T18:29:11.694Z,101243.90
2023-03-01T18:31:40.934Z,101242.09
2023-03-01T18:34:13.828Z,101238.01
2023-03-01T18:36:48.027Z,101238.91
2023-03-01T18:39:26.456Z,101238.01
2023-03-01T18:41:55.901Z,101245.48
2023-03-01T18:44:27.096Z,101247.36
2023-03-01T18:46:59.232Z,101246.58
2023-03-01T18:49:29.668Z,101249.46
2023-03-01T18:51:59.884Z,101253.35
2023-03-01T18:54:30.126Z,101255.59
2023-03-01T18:57:00.567Z,101258.00
2023-03-01T18:59:31.568Z,101256.60
2023-03-01T19:02:02.016Z,101251.20
2023-03-01T19:04:31.836Z,101255.15
2023-03-01T19:07:03.123Z,101257.59
2023-03-01T19:09:32.785Z,101261.92
2023-03-01T19:12:04.603Z,101263.83
2023-03-01T19:14:35.832Z,101264.29
2023-03-01T19:17:06.853Z,101266.23
2023-03-01T19:19:37.822Z,101269.31
2023-03-01T19:22:08.820Z,101272.15
2023-03-01T19:24:40.402Z,101277.37
2023-03-01T19:27:13.815Z,101281.77
2023-03-01T19:29:45.652Z,101283.48
2023-03-01T19:32:15.851Z,101282.27
2023-03-01T19:34:48.424Z,101282.80
2023-03-01T19:37:18.697Z,101284.58
2023-03-01T19:39:49.163Z,101288.02
2023-03-01T19:42:19.763Z,101287.14
2023-03-01T19:44:50.365Z,101283.24
2023-03-01T19:47:22.140Z,101282.66
2023-03-01T19:49:52.000Z,101280.84
2023-03-01T19:52:22.888Z,101276.56
2023-03-01T19:54:55.862Z,101277.35
2023-03-01T19:57:33.902Z,101283.38
2023-03-01T20:00:05.495Z,101283.83
2023-03-01T20:02:36.317Z,101284.67
2023-03-01T20:05:08.087Z,101281.77
2023-03-01T20:07:37.105Z,101279.45
2023-03-01T20:10:08.419Z,101282.08
2023-03-01T20:12:39.557Z,101279.56
2023-03-01T20:15:11.502Z,101279.86
2023-03-01T20:17:43.212Z,101279.54
2023-03-01T20:20:14.142Z,101278.69
2023-03-01T20:22:44.067Z,101279.44
2023-03-01T20:25:13.805Z,101276.15
2023-03-01T20:27:49.458Z,101273.86
2023-03-01T20:30:19.949Z,101276.89
2023-03-01T20:32:50.414Z,101277.36
2023-03-01T20:35:21.027Z,101282.55
2023-03-01T20:37:54.825Z,101284.08
2023-03-01T20:40:29.373Z,101278.13
2023-03-01T20:43:00.373Z,101274.02
2023-03-01T20:45:29.826Z,101273.98
2023-03-01T20:47:59.476Z,101271.41
2023-03-01T20:50:30.622Z,101272.94
2023-03-01T20:53:00.697Z,101278.61
2023-03-01T20:55:31.742Z,101275.44
2023-03-01T20:58:01.859Z,101274.44
2023-03-01T21:00:31.401Z,101277.05
2023-03-01T21:03:02.231Z,101272.92
2023-03-01T21:05:32.635Z,101263.96
2023-03-01T21:08:03.223Z,101268.48
2023-03-01T21:10:34.494Z,101272.51
2023-03-01T21:13:03.791Z,101268.73
2023-03-01T21:15:35.143Z,101269.16
2023-03-01T21:18:04.234Z,101269.13
2023-03-01T21:20:33.552Z,101267.10
2023-03-01T21:23:02.292Z,101272.97
2023-03-01T21:25:35.273Z,101269.02
2023-03-01T21:28:04.681Z,101270.30
2023-03-01T21:30:34.667Z,101263.39
2023-03-01T21:33:03.648Z,101260.86
2023-03-01T21:35:33.342Z,101263.43
2023-03-01T21:38:02.155Z,101263.60
2023-03-01T21:40:30.779Z,101260.31
2023-03-01T21:42:59.283Z,101264.70
2023-03-01T21:45:28.002Z,101263.12
2023-03-01T21:47:56.656Z,101261.81
2023-03-01T21:50:25.346Z,101265.11
2023-03-01T21:52:53.956Z,101256.88
2023-03-01T21:55:22.465Z,101259.61
2023-03-01T21:57:51.467Z,101258.98
2023-03-01T22:00:23.700Z,101260.15
2023-03-01T22:02:52.358Z,101260.05
2023-03-01T22:05:20.831Z,101258.94
2023-03-01T22:07:49.539Z,101259.51
2023-03-01T22:10:27.139Z,101259.44
2023-03-01T22:12:58.329Z,101260.34
2023-03-01T22:15:27.797Z,101259.48
2023-03-01T22:17:56.426Z,101258.54
2023-03-01T22:20:25.124Z,101256.29
2023-03-01T22:22:53.758Z,101259.86
2023-03-01T22:25:22.385Z,101259.31
2023-03-01T22:27:50.955Z,101262.81
2023-03-01T22:30:20.336Z,101260.67
2023-03-01T22:32:50.143Z,101258.75
2023-03-01T22:35:19.412Z,101255.43
2023-03-01T22:37:47.952Z,101257.91
2023-03-01T22:40:16.542Z,101254.52
2023-03-01T22:42:47.174Z,101253.63
2023-03-01T22:45:15.858Z,101252.96
2023-03-01T22:47:44.372Z,101252.37
2023-03-01T22:50:15.518Z,101254.48
2023-03-01T22:52:44.092Z,101254.02
2023-03-01T22:55:13.165Z,101253.11
2023-03-01T22:57:42.296Z,101254.36
2023-03-01T23:00:13.529Z,101251.66
2023-03-01T23:02:43.106Z,101250.74
2023-03-01T23:05:11.915Z,101251.05
2023-03-01T23:07:40.596Z,101249.02
2023-03-01T23:10:12.511Z,101252.45
2023-03-01T23:12:41.380Z,101251.27
2023-03-01T23:15:11.099Z,101247.33
2023-03-01T23:17:39.906Z,101243.92
2023-03-01T23:20:14.648Z,101244.51
2023-03-01T23:22:43.374Z,101244.98
2023-03-01T23:25:15.245Z,101247.77
2023-03-01T23:27:43.917Z,101245.33
2023-03-01T23:30:12.812Z,101245.27
2023-03-01T23:32:41.309Z,101247.31
2023-03-01T23:35:10.933Z,101241.30
2023-03-01T23:37:39.560Z,101245.28
2023-03-01T23:40:09.119Z,101243.88
2023-03-01T23:42:37.893Z,101237.91
2023-03-01T23:45:09.233Z,101238.36
2023-03-01T23:47:37.838Z,101231.65
2023-03-01T23:50:06.585Z,101231.70
2023-03-01T23:52:41.818Z,101230.70
2023-03-01T23:55:13.437Z,101231.23
2023-03-01T23:57:42.183Z,101229.88
